CYAS

Kangirsuk Supplementary Aviation Weather Reporting

Kangirsuk, Alberta, Canada
METAR CYAS 212100Z 09011KT 15SM -SHSN BKN044 02/01 A2976 RMK SC5 LAST STFD OBS NEXT 221200UTC SLP089
Observed Flight Rules
Sep-21 @ 21:00 UTC (10 hours ago) Visual Flight Rules
Wind Visibility Clouds Conditions
90° at 11 knots 15 miles
Temperatures Readings
Current 2°C / 36°F
Dewpoint 1°C / 34°F
Humidity 93%
Altimeter 29.76" Hg
Pressure 1008.9 hPa
Elevation 117
METAR CYAS 212100Z 09011KT 15SM -SHSN BKN044 02/01 A2976 RMK SC5 LAST STFD OBS NEXT 221200UTC SLP089
Observed Flight Rules
Sep-21 @ 21:00 UTC
(10 hours ago)
VFR
Wind Visibility
90° at 11 knots 15 miles
Clouds
Conditions
Temperature Dewpoint
2°C / 36°F 1°C / 34°F
Humidity Altimeter Pressure
93% 29.76" Hg 1008.9 hPa